Time;durP1;ratioP1;P1;durP2;ratioP2;P2;SDS_P1;SDS_P2;PMS_P1;PMS_P2;Temp;Humidity;BMP_temperature;BMP_pressure;BME280_temperature;BME280_humidity;BME280_pressure;Samples;Min_cycle;Max_cycle;Signal;HPM_P1;HPM_P2
2022/04/15 00:00:41;;;;;;;;;9.00;7.75;;;;;14.73;63.45;101533.00;5077637;27;45247;-74
2022/04/15 00:03:07;;;;;;;;;15.75;12.75;;;;;14.72;63.45;101533.09;5077330;27;45637;-75
2022/04/15 00:05:45;;;;;;;;;13.50;11.75;;;;;14.69;63.21;101530.53;5077232;27;45242;-74
2022/04/15 00:08:12;;;;;;;;;13.75;13.00;;;;;14.65;63.59;101526.31;5077084;27;45372;-74
2022/04/15 00:10:40;;;;;;;;;9.00;9.00;;;;;14.62;63.52;101524.63;5077345;27;45289;-74
2022/04/15 00:13:11;;;;;;;;;12.00;9.75;;;;;14.63;63.95;101534.28;5075564;27;47287;-75
2022/04/15 00:15:38;;;;;;;;;11.00;11.00;;;;;14.61;63.78;101536.16;5076824;27;45307;-74
2022/04/15 00:18:03;;;;;;;;;13.00;9.50;;;;;14.57;63.87;101531.91;5075185;28;45449;-75
2022/04/15 00:20:28;;;;;;;;;13.50;13.50;;;;;14.57;64.29;101535.44;5076021;27;45481;-74
2022/04/15 00:22:54;;;;;;;;;9.75;8.75;;;;;14.56;63.99;101538.13;5076586;27;45410;-73
2022/04/15 00:25:20;;;;;;;;;13.00;11.25;;;;;14.48;63.89;101533.16;5076485;27;45444;-75
2022/04/15 00:27:45;;;;;;;;;20.75;19.00;;;;;14.49;64.32;101532.25;5076426;27;45297;-74
2022/04/15 00:30:12;;;;;;;;;11.75;11.75;;;;;14.46;64.23;101532.38;5076782;27;45276;-74
2022/04/15 00:32:40;;;;;;;;;10.00;10.00;;;;;14.44;64.21;101528.94;5076253;27;45486;-74
2022/04/15 00:35:06;;;;;;;;;17.75;15.75;;;;;14.40;64.18;101538.75;5075157;27;45305;-75
2022/04/15 00:37:31;;;;;;;;;10.00;10.00;;;;;14.32;64.25;101520.56;5076145;27;45374;-73
2022/04/15 00:39:57;;;;;;;;;10.75;10.75;;;;;14.34;64.63;101532.88;5076977;27;45275;-75
2022/04/15 00:42:23;;;;;;;;;13.50;11.25;;;;;14.31;64.54;101528.56;5075177;27;47303;-75
2022/04/15 00:44:59;;;;;;;;;9.75;8.50;;;;;14.28;64.30;101529.53;5076920;27;45264;-74
2022/04/15 00:47:37;;;;;;;;;13.50;10.25;;;;;14.27;64.52;101537.53;5076743;27;45189;-73
2022/04/15 00:50:04;;;;;;;;;10.75;9.00;;;;;14.25;64.69;101536.75;5076665;27;45287;-74
2022/04/15 00:52:38;;;;;;;;;16.25;13.75;;;;;14.16;64.56;101525.59;5076268;27;45391;-75
2022/04/15 00:55:04;;;;;;;;;7.75;7.75;;;;;14.20;64.63;101539.56;5076312;27;45353;-75
2022/04/15 00:57:37;;;;;;;;;14.75;12.00;;;;;14.16;64.75;101527.38;5076456;27;45410;-74
2022/04/15 01:00:05;;;;;;;;;15.50;12.75;;;;;14.12;64.83;101526.66;5076681;27;45597;-76
2022/04/15 01:02:33;;;;;;;;;13.00;12.25;;;;;14.13;64.87;101531.03;5076319;27;47841;-75
2022/04/15 01:05:01;;;;;;;;;10.25;10.25;;;;;14.10;64.92;101532.91;5076498;28;45294;-75
2022/04/15 01:07:32;;;;;;;;;10.00;10.00;;;;;14.07;64.89;101525.97;5076513;27;45267;-75
2022/04/15 01:09:58;;;;;;;;;12.75;10.50;;;;;14.05;65.10;101529.59;5076349;27;45437;-75
2022/04/15 01:12:29;;;;;;;;;13.75;12.00;;;;;14.03;65.31;101532.31;5074636;27;46964;-74
2022/04/15 01:15:00;;;;;;;;;11.50;10.00;;;;;14.00;65.32;101524.50;5076184;27;45380;-74
2022/04/15 01:17:27;;;;;;;;;16.25;11.25;;;;;14.01;65.01;101531.50;5091867;27;45354;-75
2022/04/15 01:19:53;;;;;;;;;13.00;11.00;;;;;14.00;65.21;101532.44;5076467;27;45547;-74
2022/04/15 01:22:23;;;;;;;;;14.50;12.25;;;;;13.98;65.31;101529.84;5076260;27;45355;-74
2022/04/15 01:24:49;;;;;;;;;11.25;11.25;;;;;13.95;65.20;101531.75;5076205;27;45445;-74
2022/04/15 01:27:27;;;;;;;;;12.50;12.50;;;;;13.92;65.40;101532.72;5076080;27;45268;-74
2022/04/15 01:29:52;;;;;;;;;12.25;10.50;;;;;13.88;65.38;101534.63;5076080;27;45469;-74
2022/04/15 01:32:18;;;;;;;;;11.75;10.25;;;;;13.92;65.18;101543.31;5075637;27;46405;-74
2022/04/15 01:34:43;;;;;;;;;13.75;12.00;;;;;13.87;65.29;101527.63;5075851;27;45410;-74
2022/04/15 01:37:09;;;;;;;;;12.25;11.50;;;;;13.87;65.42;101527.63;5075399;27;45488;-74
2022/04/15 01:39:35;;;;;;;;;13.00;10.25;;;;;13.86;65.50;101538.25;5073816;28;45512;-73
2022/04/15 01:42:01;;;;;;;;;12.25;10.50;;;;;13.84;65.38;101538.31;5075555;27;46710;-73
2022/04/15 01:44:27;;;;;;;;;10.50;10.50;;;;;13.79;65.65;101531.47;5074709;27;45374;-74
2022/04/15 01:46:52;;;;;;;;;15.50;14.50;;;;;13.78;65.81;101538.53;5074847;27;45370;-72
2022/04/15 01:49:17;;;;;;;;;13.50;13.50;;;;;13.78;66.07;101546.47;5075495;27;45571;-73
2022/04/15 01:51:43;;;;;;;;;12.00;12.00;;;;;13.73;66.02;101540.50;5075513;27;45332;-73
2022/04/15 01:54:08;;;;;;;;;13.00;13.00;;;;;13.72;65.93;101537.00;5075217;27;45236;-74
2022/04/15 01:56:33;;;;;;;;;14.00;12.75;;;;;13.71;65.97;101539.69;5075669;27;45180;-74
2022/04/15 01:58:59;;;;;;;;;13.50;13.50;;;;;13.69;66.55;101538.88;5074236;27;45565;-75
2022/04/15 02:01:24;;;;;;;;;14.50;14.00;;;;;13.65;66.15;101534.63;5075098;27;52021;-73
2022/04/15 02:03:49;;;;;;;;;16.75;13.00;;;;;13.63;66.35;101540.00;5075813;27;45435;-74
2022/04/15 02:06:15;;;;;;;;;15.75;14.00;;;;;13.59;66.46;101530.47;5075388;27;45277;-74
2022/04/15 02:08:40;;;;;;;;;11.50;11.25;;;;;13.50;66.64;101523.72;5074955;27;45184;-74
2022/04/15 02:11:06;;;;;;;;;13.75;12.00;;;;;13.55;66.42;101536.78;5090891;27;47914;-75
2022/04/15 02:13:31;;;;;;;;;11.00;11.00;;;;;13.54;66.63;101535.06;5073535;28;45222;-74
2022/04/15 02:15:56;;;;;;;;;19.25;15.75;;;;;13.33;66.64;101503.19;5074539;27;45488;-74
2022/04/15 02:18:22;;;;;;;;;17.50;14.00;;;;;13.49;66.92;101537.00;5091241;27;45472;-73
2022/04/15 02:20:47;;;;;;;;;12.25;12.25;;;;;13.44;66.97;101531.88;5074325;27;48542;-74
2022/04/15 02:23:12;;;;;;;;;16.25;14.25;;;;;13.43;66.96;101538.09;5074751;27;45261;-73
2022/04/15 02:25:38;;;;;;;;;16.00;15.25;;;;;13.39;67.12;101541.72;5074940;27;45556;-74
2022/04/15 02:28:03;;;;;;;;;16.00;14.50;;;;;13.38;67.26;101540.00;5073669;28;45421;-73
2022/04/15 02:30:28;;;;;;;;;14.75;14.75;;;;;13.33;67.11;101537.53;5073928;27;46642;-73
2022/04/15 02:32:54;;;;;;;;;20.00;16.25;;;;;13.31;67.32;101531.47;5074571;27;45515;-75
2022/04/15 02:35:19;;;;;;;;;13.50;13.00;;;;;13.28;67.16;101534.22;5074833;27;45335;-74
2022/04/15 02:37:44;;;;;;;;;18.25;16.50;;;;;13.28;67.61;101539.50;5074898;27;45810;-74
2022/04/15 02:40:10;;;;;;;;;20.75;17.50;;;;;13.25;67.81;101536.94;5079834;27;48598;-74
2022/04/15 02:42:36;;;;;;;;;14.00;14.00;;;;;13.22;67.94;101540.56;5074235;27;45451;-73
2022/04/15 02:45:07;;;;;;;;;16.75;15.50;;;;;13.19;67.88;101535.41;5074856;27;45446;-74
2022/04/15 02:47:32;;;;;;;;;14.75;12.25;;;;;13.18;67.80;101538.94;5074752;27;45533;-74
2022/04/15 02:49:58;;;;;;;;;13.00;13.00;;;;;13.14;67.96;101538.19;5074181;27;46132;-74
2022/04/15 02:52:23;;;;;;;;;18.25;14.25;;;;;13.11;67.98;101533.00;5073127;28;45357;-74
2022/04/15 02:54:48;;;;;;;;;15.50;14.00;;;;;13.12;68.29;101544.47;5074510;27;45463;-73
2022/04/15 02:57:14;;;;;;;;;16.25;15.25;;;;;13.11;68.16;101542.72;5074945;27;45472;-74
2022/04/15 02:59:39;;;;;;;;;17.50;14.25;;;;;13.09;68.24;101542.78;5076122;27;46540;-74
2022/04/15 03:02:05;;;;;;;;;14.00;14.00;;;;;13.07;68.33;101541.13;5077631;27;45523;-73
2022/04/15 03:04:30;;;;;;;;;15.00;12.00;;;;;13.06;68.69;101544.69;5078016;27;45464;-74
2022/04/15 03:06:55;;;;;;;;;15.00;14.00;;;;;13.03;68.51;101536.84;5077209;28;45591;-73
2022/04/15 03:09:25;;;;;;;;;17.75;15.75;;;;;13.00;68.58;101545.72;5077888;27;45270;-74
2022/04/15 03:11:50;;;;;;;;;13.25;12.50;;;;;12.98;68.57;101547.56;5078094;27;45169;-74
2022/04/15 03:14:17;;;;;;;;;14.75;14.75;;;;;12.99;68.50;101546.66;5078087;27;45368;-74
2022/04/15 03:16:43;;;;;;;;;14.25;14.25;;;;;12.98;69.03;101545.81;5078431;27;45347;-74
2022/04/15 03:19:09;;;;;;;;;17.50;17.00;;;;;12.94;69.02;101541.56;5077749;28;45337;-74
2022/04/15 03:21:35;;;;;;;;;22.00;14.00;;;;;12.96;68.82;101549.41;5077629;27;45260;-73
2022/04/15 03:24:01;;;;;;;;;20.00;16.00;;;;;12.95;68.82;101547.69;5077956;27;45468;-74
2022/04/15 03:26:27;;;;;;;;;15.50;15.50;;;;;12.91;69.03;101544.28;5093957;27;45608;-74
2022/04/15 03:28:52;;;;;;;;;18.50;15.25;;;;;12.93;69.27;101552.16;5077636;27;46277;-74
2022/04/15 03:31:18;;;;;;;;;15.00;15.00;;;;;12.91;69.27;101543.41;5077413;27;45500;-75
2022/04/15 03:33:44;;;;;;;;;16.75;12.75;;;;;12.89;69.52;101548.78;5077748;27;45609;-73
2022/04/15 03:36:09;;;;;;;;;19.00;14.00;;;;;12.90;69.57;101549.63;5076457;27;45303;-74
2022/04/15 03:38:34;;;;;;;;;18.75;15.00;;;;;12.88;69.60;101548.81;5077518;27;45628;-73
2022/04/15 03:41:00;;;;;;;;;18.50;14.50;;;;;12.85;69.61;101536.59;5077600;27;45283;-73
2022/04/15 03:43:25;;;;;;;;;14.50;14.25;;;;;12.90;69.85;101546.97;5078126;28;45338;-73
2022/04/15 03:45:51;;;;;;;;;14.50;13.75;;;;;12.78;70.14;101535.06;5077837;27;45288;-73
2022/04/15 03:48:16;;;;;;;;;16.00;12.75;;;;;12.91;69.91;101554.84;5077372;27;46332;-73
2022/04/15 03:50:41;;;;;;;;;16.25;16.25;;;;;12.89;70.22;101546.13;5077225;27;45351;-76
2022/04/15 03:53:07;;;;;;;;;16.75;16.00;;;;;12.89;69.84;101546.13;5077323;27;45422;-73
2022/04/15 03:55:32;;;;;;;;;17.00;16.75;;;;;12.90;70.07;101553.13;5077395;27;45358;-74
2022/04/15 03:57:58;;;;;;;;;18.50;17.00;;;;;12.89;69.91;101547.88;5077090;27;45325;-74
2022/04/15 04:00:24;;;;;;;;;15.00;15.00;;;;;12.90;70.09;101563.69;5077113;27;45557;-74
2022/04/15 04:02:53;;;;;;;;;19.00;17.25;;;;;12.82;70.41;101547.25;5077199;27;45373;-74
2022/04/15 04:05:18;;;;;;;;;17.50;16.00;;;;;12.85;70.18;101557.72;5077272;27;45522;-72
2022/04/15 04:07:45;;;;;;;;;18.25;16.00;;;;;12.85;70.31;101558.56;5076844;27;46046;-76
2022/04/15 04:10:12;;;;;;;;;20.75;19.00;;;;;12.85;70.13;101557.72;5076706;27;45432;-76
2022/04/15 04:12:38;;;;;;;;;18.00;15.25;;;;;12.84;70.54;101562.13;5077238;27;45387;-76
2022/04/15 04:15:05;;;;;;;;;15.50;15.50;;;;;12.82;70.90;101558.66;5077252;27;45518;-77
2022/04/15 04:17:32;;;;;;;;;15.00;14.75;;;;;12.80;70.93;101560.50;5076935;27;47957;-74
2022/04/15 04:19:57;;;;;;;;;16.25;13.75;;;;;12.66;70.80;101542.47;5074963;28;45519;-75
2022/04/15 04:22:30;;;;;;;;;16.50;13.75;;;;;12.79;70.84;101566.69;5076490;27;45512;-77
2022/04/15 04:24:55;;;;;;;;;18.00;15.75;;;;;12.74;71.59;101559.84;5077349;28;45428;-77
2022/04/15 04:27:21;;;;;;;;;15.50;14.50;;;;;12.77;71.33;101572.94;5075578;27;46442;-76
2022/04/15 04:29:47;;;;;;;;;18.00;16.50;;;;;12.74;71.68;101565.97;5076204;27;45406;-76
2022/04/15 04:32:14;;;;;;;;;19.50;17.25;;;;;12.74;71.81;101578.34;5076740;27;45503;-75
2022/04/15 04:34:40;;;;;;;;;17.00;14.50;;;;;12.74;71.22;101570.41;5076396;27;45671;-77
2022/04/15 04:37:05;;;;;;;;;16.75;16.75;;;;;12.71;71.86;101566.09;5075762;27;45327;-76
2022/04/15 04:39:30;;;;;;;;;21.00;18.25;;;;;12.72;72.08;101575.72;5076757;27;50916;-77
2022/04/15 04:41:58;;;;;;;;;15.50;14.50;;;;;12.69;72.49;101574.03;5076787;27;45374;-75
2022/04/15 04:44:24;;;;;;;;;16.75;15.50;;;;;12.70;72.41;101574.91;5076832;27;45328;-75
2022/04/15 04:46:50;;;;;;;;;16.75;15.25;;;;;12.64;72.43;101573.34;5076510;27;45313;-75
2022/04/15 04:49:15;;;;;;;;;20.00;17.50;;;;;12.62;72.64;101580.44;5076693;27;45381;-76
2022/04/15 04:51:41;;;;;;;;;23.00;18.75;;;;;12.63;72.73;101581.31;5077264;27;45447;-77
2022/04/15 04:54:07;;;;;;;;;19.75;17.50;;;;;12.59;72.79;101580.53;5092692;27;45654;-76
2022/04/15 04:56:32;;;;;;;;;20.00;20.00;;;;;12.57;73.41;101577.97;5076727;27;45711;-75
2022/04/15 04:58:58;;;;;;;;;20.50;19.00;;;;;12.63;73.09;101586.59;5076618;27;50973;-78
2022/04/15 05:01:23;;;;;;;;;20.75;18.00;;;;;12.57;73.58;101585.88;5076608;27;45304;-75
2022/04/15 05:03:49;;;;;;;;;17.00;15.00;;;;;12.56;73.44;101583.28;5076354;27;45448;-76
2022/04/15 05:06:14;;;;;;;;;21.00;19.50;;;;;12.52;73.52;101587.81;5076062;27;45202;-76
2022/04/15 05:08:39;;;;;;;;;26.50;21.25;;;;;12.53;73.39;101592.19;5074825;28;46122;-76
2022/04/15 05:11:05;;;;;;;;;20.00;17.25;;;;;12.55;73.39;101595.63;5076278;27;45350;-77
2022/04/15 05:13:30;;;;;;;;;25.50;21.75;;;;;12.55;73.22;101593.00;5076907;28;45227;-76
2022/04/15 05:15:56;;;;;;;;;23.00;19.50;;;;;12.56;73.21;101599.13;5075960;27;46488;-78
2022/04/15 05:18:21;;;;;;;;;16.00;16.00;;;;;12.53;73.78;101599.22;5075912;27;45180;-79
2022/04/15 05:20:46;;;;;;;;;22.25;17.75;;;;;12.60;73.21;101611.28;5075771;27;45266;-76
2022/04/15 05:23:13;;;;;;;;;17.50;15.75;;;;;12.54;73.26;101600.94;5074325;28;45615;-76
2022/04/15 05:25:38;;;;;;;;;18.25;17.25;;;;;12.57;73.17;101614.03;5075688;27;45382;-75
2022/04/15 05:28:04;;;;;;;;;17.00;15.50;;;;;12.58;73.75;101618.41;5076907;27;45420;-76
2022/04/15 05:30:29;;;;;;;;;15.50;15.25;;;;;12.61;74.13;101610.38;5076183;28;45542;-76
2022/04/15 05:32:54;;;;;;;;;17.25;16.75;;;;;12.62;73.45;101619.19;5075216;27;45573;-77
2022/04/15 05:35:20;;;;;;;;;21.50;19.25;;;;;12.62;72.98;101609.47;5075422;27;45326;-77
2022/04/15 05:37:45;;;;;;;;;18.25;16.75;;;;;12.64;72.94;101618.19;5074276;27;45403;-77
2022/04/15 05:40:10;;;;;;;;;21.75;18.25;;;;;12.65;72.59;101614.66;5075385;27;45430;-78
2022/04/15 05:42:36;;;;;;;;;15.00;13.00;;;;;12.69;73.01;101620.72;5075350;27;45427;-78
2022/04/15 05:45:02;;;;;;;;;18.00;16.25;;;;;12.70;72.77;101625.91;5075359;27;46311;-79
2022/04/15 05:47:27;;;;;;;;;23.00;17.25;;;;;12.71;72.83;101622.38;5075320;27;45321;-77
2022/04/15 05:49:52;;;;;;;;;18.25;15.75;;;;;12.71;72.60;101617.09;5075849;27;45534;-77
2022/04/15 05:52:18;;;;;;;;;17.50;16.50;;;;;12.74;72.69;101618.78;5075283;27;45509;-78
2022/04/15 05:54:43;;;;;;;;;19.50;16.25;;;;;12.74;72.50;101617.94;5075406;27;45336;-78
2022/04/15 05:57:08;;;;;;;;;18.75;17.00;;;;;12.76;72.05;101624.03;5075793;27;45270;-76
2022/04/15 05:59:34;;;;;;;;;20.00;18.25;;;;;12.84;72.29;101629.91;5075666;27;45372;-78
2022/04/15 06:01:59;;;;;;;;;18.75;17.00;;;;;12.84;72.22;101627.28;5075899;27;45244;-78
2022/04/15 06:04:24;;;;;;;;;22.50;19.50;;;;;12.90;72.18;101628.84;5075056;27;46038;-76
2022/04/15 06:06:50;;;;;;;;;21.00;17.50;;;;;12.92;71.99;101633.16;5075283;27;45294;-78
2022/04/15 06:09:16;;;;;;;;;21.50;16.75;;;;;12.96;71.99;101639.19;5075383;27;45296;-76
2022/04/15 06:11:42;;;;;;;;;23.50;17.50;;;;;13.00;71.33;101640.81;5075674;27;45568;-77
2022/04/15 06:14:08;;;;;;;;;17.00;17.00;;;;;12.98;71.47;101630.31;5075148;27;45409;-75
2022/04/15 06:16:37;;;;;;;;;15.75;14.00;;;;;13.09;71.55;101643.16;5075427;27;45429;-76
2022/04/15 06:19:02;;;;;;;;;20.75;19.00;;;;;13.17;71.56;101647.31;5091319;27;45370;-76
2022/04/15 06:21:28;;;;;;;;;18.50;17.25;;;;;13.19;70.96;101643.72;5075432;27;45363;-78
2022/04/15 06:23:54;;;;;;;;;16.00;16.00;;;;;13.27;70.53;101654.88;5074792;27;46456;-77
2022/04/15 06:26:20;;;;;;;;;22.75;18.50;;;;;13.33;70.63;101658.22;5074746;27;45413;-77
2022/04/15 06:28:45;;;;;;;;;14.75;14.75;;;;;13.36;69.87;101656.34;5075053;27;45414;-77
2022/04/15 06:31:11;;;;;;;;;17.50;17.50;;;;;13.37;69.88;101657.19;5075397;27;45177;-77
2022/04/15 06:33:37;;;;;;;;;16.75;14.75;;;;;13.40;70.13;101659.72;5076981;27;46644;-77
2022/04/15 06:36:03;;;;;;;;;18.00;16.75;;;;;13.46;69.49;101671.91;5080078;27;45245;-78
2022/04/15 06:38:29;;;;;;;;;16.50;16.50;;;;;13.44;69.00;101662.25;5079522;27;45383;-76
2022/04/15 06:40:54;;;;;;;;;19.50;16.50;;;;;13.47;68.78;101663.91;5077600;27;45323;-75
2022/04/15 06:43:20;;;;;;;;;25.25;23.50;;;;;13.48;68.72;101665.66;5078578;27;45775;-77
2022/04/15 06:45:45;;;;;;;;;14.75;14.75;;;;;13.55;68.37;101669.78;5078042;27;45377;-76
2022/04/15 06:48:11;;;;;;;;;17.25;14.50;;;;;13.54;68.32;101667.22;5078138;27;45351;-75
2022/04/15 06:50:36;;;;;;;;;20.00;16.50;;;;;13.63;68.44;101669.53;5078639;27;45623;-74
2022/04/15 06:53:02;;;;;;;;;18.25;18.25;;;;;13.68;68.05;101666.72;5078219;27;45526;-76
2022/04/15 06:55:27;;;;;;;;;15.00;14.25;;;;;13.73;67.99;101659.47;5078203;27;45417;-77
2022/04/15 06:57:53;;;;;;;;;14.75;12.25;;;;;13.80;67.52;101670.72;5077832;28;45446;-76
2022/04/15 07:00:18;;;;;;;;;15.75;15.75;;;;;13.84;67.51;101674.97;5078138;27;45559;-73
2022/04/15 07:02:44;;;;;;;;;12.00;12.00;;;;;13.85;66.46;101667.00;5076113;28;47241;-83
2022/04/15 07:05:09;;;;;;;;;13.75;13.00;;;;;13.86;66.31;101663.44;5077170;27;45492;-72
2022/04/15 07:07:40;;;;;;;;;13.50;13.50;;;;;13.88;66.14;101669.53;5077718;27;45314;-75
2022/04/15 07:10:07;;;;;;;;;13.00;12.00;;;;;13.97;66.04;101676.25;5093775;27;45267;-74
2022/04/15 07:12:33;;;;;;;;;15.75;12.25;;;;;14.04;65.95;101684.81;5077203;27;45685;-76
2022/04/15 07:14:58;;;;;;;;;14.50;14.50;;;;;14.12;65.70;101685.41;5077085;27;45364;-71
2022/04/15 07:17:24;;;;;;;;;15.50;14.25;;;;;14.17;65.72;101672.84;5077755;27;45732;-76
2022/04/15 07:19:50;;;;;;;;;17.50;14.25;;;;;14.30;65.71;101677.69;5078591;27;45599;-75
2022/04/15 07:22:18;;;;;;;;;19.50;14.00;;;;;14.45;65.23;101692.13;5078336;27;46040;-76
2022/04/15 07:24:43;;;;;;;;;14.75;14.75;;;;;14.56;64.92;101696.97;5093675;27;45480;-75
2022/04/15 07:27:09;;;;;;;;;17.25;14.50;;;;;14.67;64.16;101688.63;5078114;27;45469;-78
2022/04/15 07:29:34;;;;;;;;;14.75;13.50;;;;;14.79;63.76;101688.16;5077639;27;45502;-76
2022/04/15 07:31:59;;;;;;;;;17.75;14.00;;;;;14.85;63.76;101690.56;5079802;27;50607;-81
2022/04/15 07:34:26;;;;;;;;;17.25;16.25;;;;;14.95;64.11;101682.25;5078912;27;45380;-68
2022/04/15 07:36:55;;;;;;;;;15.50;14.50;;;;;15.11;63.35;101690.44;5077310;27;45324;-75
2022/04/15 07:39:21;;;;;;;;;17.50;15.50;;;;;15.14;63.05;101677.06;5057372;28;45446;-77
2022/04/15 07:41:47;;;;;;;;;15.00;14.75;;;;;15.32;62.39;101694.81;5062237;28;46431;-72
2022/04/15 07:44:13;;;;;;;;;26.50;25.25;;;;;15.43;62.67;101694.38;5091958;27;45341;-73
2022/04/15 07:46:41;;;;;;;;;18.00;17.00;;;;;15.53;61.79;101696.63;5075662;27;45387;-78
2022/04/15 07:49:06;;;;;;;;;18.25;18.00;;;;;15.58;61.85;101689.34;5073210;27;45516;-75
2022/04/15 07:51:33;;;;;;;;;20.00;19.00;;;;;15.68;61.46;101689.78;5075035;27;45888;-73
2022/04/15 07:53:59;;;;;;;;;16.50;15.50;;;;;15.73;61.00;101693.09;5075707;27;45464;-71
2022/04/15 07:56:25;;;;;;;;;18.50;18.50;;;;;15.81;60.47;101700.72;5075898;27;45448;-73
2022/04/15 07:58:51;;;;;;;;;14.25;14.25;;;;;15.80;60.91;101699.00;5076126;27;45241;-73
2022/04/15 08:01:17;;;;;;;;;20.25;17.50;;;;;15.86;60.61;101701.38;5075880;27;46146;-73
2022/04/15 08:03:42;;;;;;;;;16.00;15.25;;;;;15.93;60.37;101702.00;5076196;27;45382;-71
2022/04/15 08:06:08;;;;;;;;;18.00;16.25;;;;;16.00;59.56;101706.09;5076204;27;45520;-72
2022/04/15 08:08:33;;;;;;;;;16.00;16.00;;;;;16.03;59.12;101701.50;5075878;27;45563;-72
2022/04/15 08:10:58;;;;;;;;;15.00;15.00;;;;;16.11;59.65;101711.78;5075740;27;46452;-72
2022/04/15 08:13:24;;;;;;;;;15.25;15.25;;;;;16.21;59.46;101702.47;5076062;28;45437;-77
2022/04/15 08:15:53;;;;;;;;;16.00;14.75;;;;;16.32;59.15;101698.44;5076373;27;45523;-68
2022/04/15 08:18:22;;;;;;;;;18.25;18.25;;;;;16.40;58.94;101698.94;5078062;27;45495;-79
2022/04/15 08:20:50;;;;;;;;;18.25;17.75;;;;;16.45;58.95;101694.28;5077856;27;46410;-78
2022/04/15 08:23:16;;;;;;;;;16.00;15.75;;;;;16.55;58.17;101701.81;5079344;27;45367;-80
2022/04/15 08:25:43;;;;;;;;;19.00;14.50;;;;;16.64;58.13;101698.72;5095864;27;45293;-80
2022/04/15 08:28:09;;;;;;;;;18.00;16.25;;;;;16.70;57.83;101701.06;5080886;27;45537;-82
2022/04/15 08:30:34;;;;;;;;;18.50;17.50;;;;;16.76;57.22;101706.09;5078982;27;47705;-81
2022/04/15 08:33:02;;;;;;;;;18.50;15.00;;;;;16.79;57.53;101703.28;5079856;27;45444;-78
2022/04/15 08:35:28;;;;;;;;;17.25;14.75;;;;;16.83;57.20;101697.81;5081328;27;45324;-79
2022/04/15 08:37:53;;;;;;;;;13.25;12.00;;;;;16.90;57.00;101704.56;5079169;27;45394;-82
2022/04/15 08:40:19;;;;;;;;;9.50;9.50;;;;;16.90;56.99;101696.59;5077860;27;45524;-81
2022/04/15 08:42:45;;;;;;;;;14.75;12.50;;;;;16.93;56.83;101696.44;5076530;28;45429;-80
2022/04/15 08:45:12;;;;;;;;;14.00;12.00;;;;;17.01;56.78;101704.06;5076857;27;45533;-81
2022/04/15 08:47:39;;;;;;;;;14.50;12.00;;;;;17.06;57.01;101710.91;5076985;27;45508;-81
2022/04/15 08:50:06;;;;;;;;;15.00;12.00;;;;;17.11;56.50;101696.50;5077377;27;45339;-82
2022/04/15 08:52:32;;;;;;;;;13.50;12.50;;;;;17.20;56.39;101699.56;5077044;27;45261;-80
2022/04/15 08:55:00;;;;;;;;;8.75;8.75;;;;;17.37;56.27;101706.69;5077178;28;45195;-82
2022/04/15 08:57:26;;;;;;;;;10.25;10.25;;;;;17.55;55.21;101721.78;5079919;27;45425;-85
2022/04/15 08:59:53;;;;;;;;;6.00;5.00;;;;;17.45;54.46;101700.97;5075925;28;47472;-81
2022/04/15 09:02:33;;;;;;;;;5.75;5.00;;;;;17.50;54.49;101716.69;5076346;27;45437;-78
2022/04/15 09:05:00;;;;;;;;;7.75;6.00;;;;;17.52;54.82;101713.03;5077296;27;45378;-76
2022/04/15 09:07:32;;;;;;;;;6.50;4.25;;;;;17.61;54.56;101709.00;5077077;27;45397;-82
2022/04/15 09:09:59;;;;;;;;;5.25;5.00;;;;;17.76;54.31;101718.00;5076176;27;45421;-80
2022/04/15 09:12:28;;;;;;;;;6.50;6.50;;;;;17.68;54.02;101696.25;5076078;27;45409;-81
2022/04/15 09:15:16;;;;;;;;;5.50;5.50;;;;;17.87;53.86;101719.25;5075523;27;45301;-77
2022/04/15 09:17:46;;;;;;;;;7.25;7.00;;;;;17.86;53.67;101718.38;5076068;28;45371;-78
2022/04/15 09:20:12;;;;;;;;;7.00;6.00;;;;;17.90;53.96;101711.94;5075982;27;45480;-79
2022/04/15 09:22:38;;;;;;;;;12.00;10.25;;;;;18.01;53.47;101723.84;5076041;27;45366;-80
2022/04/15 09:25:04;;;;;;;;;11.50;9.00;;;;;18.01;52.79;101738.03;5076387;27;45389;-79
2022/04/15 09:27:30;;;;;;;;;10.25;9.00;;;;;18.06;53.45;101729.81;5075974;27;45558;-78
2022/04/15 09:29:55;;;;;;;;;14.50;10.25;;;;;18.11;52.55;101733.09;5075160;27;45536;-80
2022/04/15 09:32:22;;;;;;;;;11.75;7.00;;;;;18.13;53.03;101730.31;5076234;27;45284;-80
2022/04/15 09:35:03;;;;;;;;;6.25;6.25;;;;;18.22;52.09;101727.16;5075684;28;45425;-79
2022/04/15 09:37:31;;;;;;;;;8.50;7.00;;;;;18.22;52.60;101724.50;5061109;28;45304;-79
2022/04/15 09:40:03;;;;;;;;;7.50;6.50;;;;;18.34;52.54;101725.66;5075384;27;45455;-79
2022/04/15 09:42:29;;;;;;;;;9.25;7.75;;;;;18.44;52.02;101729.53;5075130;27;45368;-78
2022/04/15 09:44:59;;;;;;;;;7.00;5.25;;;;;18.51;52.32;101720.25;5075825;27;45310;-80
2022/04/15 09:47:24;;;;;;;;;4.25;4.25;;;;;18.51;51.81;101711.38;5075204;27;45891;-77
2022/04/15 09:49:50;;;;;;;;;3.00;2.00;;;;;18.61;52.06;101719.72;5074854;28;46732;-78
2022/04/15 09:52:24;;;;;;;;;5.75;5.00;;;;;18.71;50.91;101720.06;5075870;27;45325;-79
2022/04/15 09:54:54;;;;;;;;;9.00;7.50;;;;;18.66;51.00;101713.19;5075564;27;45413;-78
2022/04/15 09:57:19;;;;;;;;;7.00;5.75;;;;;18.77;50.21;101725.91;5075564;27;45476;-76
2022/04/15 09:59:49;;;;;;;;;6.00;4.50;;;;;18.81;50.78;101713.28;5075008;27;46459;-81
2022/04/15 10:02:15;;;;;;;;;6.25;6.25;;;;;18.93;50.60;101717.03;5075911;28;45485;-79
2022/04/15 10:04:41;;;;;;;;;4.00;4.00;;;;;19.02;50.39;101705.84;5076080;27;45455;-80
2022/04/15 10:07:08;;;;;;;;;7.00;5.00;;;;;19.18;49.29;101721.84;5076558;27;45403;-78
2022/04/15 10:09:41;;;;;;;;;9.50;7.25;;;;;19.24;49.29;101718.81;5075659;27;46345;-80
2022/04/15 10:12:08;;;;;;;;;5.25;5.25;;;;;19.31;49.85;101719.31;5076099;27;45408;-78
2022/04/15 10:14:35;;;;;;;;;6.50;5.25;;;;;19.35;49.11;101715.50;5078753;27;45333;-79
2022/04/15 10:17:02;;;;;;;;;8.00;6.50;;;;;19.37;49.14;101712.75;5078008;28;45173;-78
2022/04/15 10:19:29;;;;;;;;;7.75;6.00;;;;;19.43;48.60;101717.72;5076192;28;45304;-79
2022/04/15 10:21:55;;;;;;;;;4.25;4.25;;;;;19.47;48.81;101707.72;5076160;27;45353;-74
2022/04/15 10:24:24;;;;;;;;;7.00;7.00;;;;;19.50;48.65;101699.53;5073390;28;45338;-69
2022/04/15 10:26:57;;;;;;;;;10.25;6.75;;;;;19.68;48.43;101710.91;5074905;27;45531;-72
2022/04/15 10:29:22;;;;;;;;;5.25;5.25;;;;;19.79;47.63;101712.91;5074445;27;45398;-74
2022/04/15 10:31:52;;;;;;;;;18.00;16.75;;;;;19.84;48.52;101710.81;5075361;27;45388;-74
2022/04/15 10:34:19;;;;;;;;;6.75;6.00;;;;;19.98;47.25;101707.34;5075302;27;45301;-76
2022/04/15 10:36:53;;;;;;;;;7.00;6.75;;;;;20.09;47.60;101702.19;5075422;28;45605;-78
2022/04/15 10:39:26;;;;;;;;;4.00;2.75;;;;;20.15;46.88;101698.28;5074622;27;45680;-76
2022/04/15 10:41:56;;;;;;;;;3.00;3.00;;;;;20.13;46.47;101693.00;5075027;27;45255;-74
2022/04/15 10:44:39;;;;;;;;;6.75;5.50;;;;;20.22;46.27;101696.06;5074736;27;45328;-72
2022/04/15 10:47:16;;;;;;;;;10.75;10.00;;;;;20.34;46.38;101691.75;5075123;27;45354;-76
2022/04/15 10:50:03;;;;;;;;;5.75;5.75;;;;;20.35;45.71;101691.66;5074870;27;46650;-76
2022/04/15 10:52:30;;;;;;;;;3.75;3.75;;;;;20.36;44.49;101692.53;5074368;27;45848;-78
2022/04/15 10:55:02;;;;;;;;;4.00;2.00;;;;;20.43;45.52;101691.16;5074514;27;45302;-79
2022/04/15 10:57:41;;;;;;;;;2.25;2.25;;;;;20.53;45.25;101689.63;5077001;27;45473;-78
2022/04/15 11:03:20;;;;;;;;;7.00;6.00;;;;;20.70;45.12;101684.97;5075032;28;45196;-78
2022/04/15 11:05:46;;;;;;;;;9.25;8.25;;;;;20.85;45.48;101685.81;5074917;28;45407;-79
2022/04/15 11:08:13;;;;;;;;;3.75;3.25;;;;;20.89;43.10;101683.78;5074824;27;45225;-80
2022/04/15 11:10:41;;;;;;;;;1.00;1.00;;;;;20.93;44.03;101687.97;5074914;27;45311;-78
2022/04/15 11:13:32;;;;;;;;;1.50;0.00;;;;;20.91;43.76;101687.22;5075085;27;45408;-79